createdAt,value
2019-04-29T00:00:08.391Z,2.67
2019-04-29T00:02:39.884Z,2.90
2019-04-29T00:05:08.745Z,2.83
2019-04-29T00:07:38.934Z,2.90
2019-04-29T00:10:11.528Z,2.53
2019-04-29T00:12:40.297Z,2.53
2019-04-29T00:15:29.805Z,3.03
2019-04-29T00:18:02.573Z,2.93
2019-04-29T00:20:41.343Z,3.03
2019-04-29T00:23:10.340Z,2.90
2019-04-29T00:25:39.090Z,2.97
2019-04-29T00:28:07.807Z,3.00
2019-04-29T00:30:36.620Z,3.00
2019-04-29T00:33:05.294Z,3.23
2019-04-29T00:35:34.715Z,3.03
2019-04-29T00:38:20.610Z,3.13
2019-04-29T00:41:08.690Z,3.10
2019-04-29T00:43:42.199Z,2.93
2019-04-29T00:46:12.294Z,3.37
2019-04-29T00:48:40.978Z,3.30
2019-04-29T00:51:09.808Z,3.30
2019-04-29T00:53:40.731Z,3.13
2019-04-29T00:56:11.673Z,3.43
2019-04-29T00:58:40.335Z,3.20
2019-04-29T01:01:13.270Z,2.93
2019-04-29T01:03:42.379Z,2.80
2019-04-29T01:06:11.017Z,3.07
2019-04-29T01:08:43.452Z,3.47
2019-04-29T01:11:12.639Z,3.43
2019-04-29T01:13:41.606Z,3.23
2019-04-29T01:16:10.273Z,3.77
2019-04-29T01:18:39.276Z,3.30
2019-04-29T01:21:08.188Z,3.13
2019-04-29T01:23:36.898Z,3.50
2019-04-29T01:26:23.765Z,3.63
2019-04-29T01:28:57.563Z,3.07
2019-04-29T01:31:30.006Z,3.53
2019-04-29T01:34:09.664Z,3.80
2019-04-29T01:36:40.559Z,3.63
2019-04-29T01:39:10.439Z,3.77
2019-04-29T01:42:01.248Z,3.93
2019-04-29T01:44:31.519Z,3.47
2019-04-29T01:47:00.524Z,3.83
2019-04-29T01:49:29.372Z,4.23
2019-04-29T01:51:58.650Z,3.67
2019-04-29T01:54:27.656Z,4.00
2019-04-29T01:56:56.735Z,4.60
2019-04-29T01:59:25.686Z,4.07
2019-04-29T02:01:54.355Z,4.00
2019-04-29T02:04:23.153Z,4.20
2019-04-29T02:06:52.377Z,4.03
2019-04-29T02:09:29.561Z,4.37
2019-04-29T02:11:58.410Z,4.50
2019-04-29T02:14:27.337Z,4.70
2019-04-29T02:16:55.987Z,4.50
2019-04-29T02:19:24.954Z,4.60
2019-04-29T02:22:14.416Z,4.70
2019-04-29T02:24:46.632Z,4.67
2019-04-29T02:27:15.318Z,4.43
2019-04-29T02:29:43.999Z,5.63
2019-04-29T02:32:12.666Z,5.10
2019-04-29T02:34:41.398Z,5.47
2019-04-29T02:37:11.709Z,4.83
2019-04-29T02:39:45.730Z,5.30
2019-04-29T02:42:42.737Z,5.90
2019-04-29T02:45:19.648Z,5.50
2019-04-29T02:47:48.397Z,5.33
2019-04-29T02:50:18.013Z,5.50
2019-04-29T02:52:47.017Z,5.50
2019-04-29T02:55:19.122Z,5.30
2019-04-29T02:57:56.819Z,5.93
2019-04-29T03:00:34.355Z,6.17
2019-04-29T03:03:12.785Z,6.33
2019-04-29T03:05:48.441Z,6.50
2019-04-29T03:08:17.791Z,6.53
2019-04-29T03:10:46.675Z,6.50
2019-04-29T03:13:15.571Z,6.67
2019-04-29T03:15:44.836Z,6.93
2019-04-29T03:18:13.811Z,7.07
2019-04-29T03:21:05.033Z,6.90
2019-04-29T03:23:34.372Z,7.17
2019-04-29T03:26:03.638Z,6.60
2019-04-29T03:28:32.839Z,7.27
2019-04-29T03:31:01.693Z,7.20
2019-04-29T03:33:30.820Z,7.23
2019-04-29T03:36:00.616Z,7.03
2019-04-29T03:38:29.335Z,7.33
2019-04-29T03:40:58.037Z,6.97
2019-04-29T03:43:26.935Z,7.23
2019-04-29T03:45:55.905Z,7.13
2019-04-29T03:48:24.672Z,7.40
2019-04-29T03:50:53.512Z,8.27
2019-04-29T03:53:22.160Z,8.80
2019-04-29T03:55:53.092Z,7.93
2019-04-29T03:58:21.759Z,8.80
2019-04-29T04:00:53.536Z,7.93
2019-04-29T04:03:38.796Z,9.20
2019-04-29T04:06:13.441Z,9.17
2019-04-29T04:08:44.747Z,8.97
2019-04-29T04:11:13.762Z,9.93
2019-04-29T04:13:42.468Z,8.70
2019-04-29T04:16:16.699Z,9.57
2019-04-29T04:18:45.426Z,9.77
2019-04-29T04:21:14.657Z,9.73
2019-04-29T04:23:43.870Z,9.67
2019-04-29T04:26:12.585Z,9.50
2019-04-29T04:28:41.264Z,9.93
2019-04-29T04:31:10.019Z,10.17
2019-04-29T04:33:38.762Z,9.63
2019-04-29T04:36:07.694Z,9.93
2019-04-29T04:38:36.648Z,10.47
2019-04-29T04:41:08.249Z,9.27
2019-04-29T04:43:37.190Z,9.57
2019-04-29T04:46:05.942Z,10.60
2019-04-29T04:48:34.725Z,10.00
2019-04-29T04:51:03.413Z,10.40
2019-04-29T04:53:32.516Z,9.53
2019-04-29T04:56:01.713Z,9.70
2019-04-29T04:58:31.625Z,10.13
2019-04-29T05:01:00.823Z,9.77
2019-04-29T05:03:29.624Z,11.97
2019-04-29T05:05:58.803Z,11.30
2019-04-29T05:08:27.563Z,10.50
2019-04-29T05:10:56.292Z,10.20
2019-04-29T05:13:28.134Z,10.77
2019-04-29T05:15:55.833Z,10.80
2019-04-29T05:18:25.043Z,10.23
2019-04-29T05:20:54.114Z,10.63
2019-04-29T05:23:22.786Z,11.27
2019-04-29T05:25:51.595Z,10.30
2019-04-29T05:28:20.303Z,10.70
2019-04-29T05:30:49.062Z,10.73
2019-04-29T05:33:17.774Z,10.87
2019-04-29T05:36:01.904Z,10.07
2019-04-29T05:38:36.958Z,11.23
2019-04-29T05:41:05.619Z,11.43
2019-04-29T05:43:47.093Z,10.00
2019-04-29T05:46:38.345Z,11.00
2019-04-29T05:49:09.066Z,11.30
2019-04-29T05:51:46.894Z,11.33
2019-04-29T05:54:16.959Z,10.70
2019-04-29T05:56:45.654Z,10.97
2019-04-29T05:59:14.383Z,10.87
2019-04-29T06:01:47.162Z,10.47
2019-04-29T06:04:16.340Z,10.63
2019-04-29T06:06:44.506Z,9.47
2019-04-29T06:09:16.655Z,11.07
2019-04-29T06:11:43.623Z,10.33
2019-04-29T06:14:12.915Z,10.43
2019-04-29T06:16:41.563Z,10.27
2019-04-29T06:19:10.381Z,10.43
2019-04-29T06:21:39.025Z,10.07
2019-04-29T06:24:07.784Z,9.53
2019-04-29T06:26:36.465Z,10.40
2019-04-29T06:29:05.974Z,9.73
2019-04-29T06:31:34.947Z,9.67
2019-04-29T06:34:05.366Z,10.23
2019-04-29T06:36:34.426Z,10.30
2019-04-29T06:39:04.094Z,9.17
2019-04-29T06:41:33.080Z,9.43
2019-04-29T06:44:05.852Z,8.23
2019-04-29T06:46:32.490Z,8.77
2019-04-29T06:49:10.141Z,8.77
2019-04-29T06:51:31.991Z,8.00
2019-04-29T06:54:00.682Z,8.47
2019-04-29T06:56:29.363Z,7.87
2019-04-29T06:58:58.386Z,8.47
2019-04-29T07:01:27.386Z,7.53
2019-04-29T07:03:59.808Z,7.33
2019-04-29T07:06:26.713Z,6.67
2019-04-29T07:08:56.091Z,6.33
2019-04-29T07:11:24.787Z,6.47
2019-04-29T07:13:57.289Z,6.43
2019-04-29T07:16:27.210Z,6.80
2019-04-29T07:18:54.548Z,5.90
2019-04-29T07:21:23.185Z,6.13
2019-04-29T07:23:52.104Z,6.03
2019-04-29T07:26:20.747Z,5.37
2019-04-29T07:28:53.348Z,6.37
2019-04-29T07:31:19.882Z,6.07
2019-04-29T07:33:48.548Z,6.20
2019-04-29T07:36:18.726Z,5.93
2019-04-29T07:38:51.757Z,6.37
2019-04-29T07:41:18.968Z,7.30
2019-04-29T07:43:48.544Z,7.47
2019-04-29T07:46:56.040Z,7.97
2019-04-29T07:49:12.699Z,8.03
2019-04-29T07:51:42.296Z,7.47
2019-04-29T07:54:15.819Z,8.37
2019-04-29T07:56:42.458Z,7.93
2019-04-29T07:59:11.779Z,7.30
2019-04-29T08:01:40.503Z,8.23
2019-04-29T08:04:09.266Z,7.47
2019-04-29T08:06:42.711Z,7.97
2019-04-29T08:09:09.943Z,9.07
2019-04-29T08:11:38.663Z,9.33
2019-04-29T08:14:07.690Z,8.87
2019-04-29T08:16:36.654Z,8.63
2019-04-29T08:19:05.624Z,8.83
2019-04-29T08:21:34.651Z,8.80
2019-04-29T08:24:03.306Z,10.70
2019-04-29T08:26:33.715Z,8.83
2019-04-29T08:29:02.367Z,8.83
2019-04-29T08:31:31.058Z,8.57
2019-04-29T08:34:00.096Z,8.93
2019-04-29T08:36:29.079Z,8.33
2019-04-29T08:39:07.975Z,8.47
2019-04-29T08:41:29.805Z,8.23
2019-04-29T08:44:25.631Z,8.07
2019-04-29T08:47:01.070Z,8.00
2019-04-29T08:49:30.243Z,9.20
2019-04-29T08:51:58.977Z,8.53
2019-04-29T08:54:27.690Z,8.90
2019-04-29T08:57:02.961Z,8.97
2019-04-29T08:59:26.887Z,9.60
2019-04-29T09:01:55.900Z,8.97
2019-04-29T09:04:24.615Z,8.13
2019-04-29T09:06:55.305Z,8.70
2019-04-29T09:09:29.301Z,8.77
2019-04-29T09:11:54.819Z,8.23
2019-04-29T09:14:23.557Z,8.30
2019-04-29T09:16:52.372Z,9.13
2019-04-29T09:19:21.123Z,7.90
2019-04-29T09:21:53.355Z,8.40
2019-04-29T09:24:22.113Z,8.07
2019-04-29T09:26:56.334Z,8.60
2019-04-29T09:29:33.106Z,8.37
2019-04-29T09:32:02.189Z,8.07
2019-04-29T09:34:30.937Z,8.33
2019-04-29T09:36:59.587Z,8.50
2019-04-29T09:39:42.036Z,8.70
2019-04-29T09:42:16.304Z,8.60
2019-04-29T09:45:02.870Z,8.37
2019-04-29T09:47:32.108Z,11.93
2019-04-29T09:50:00.856Z,8.57
2019-04-29T09:52:30.051Z,8.63
2019-04-29T09:54:59.535Z,8.30
2019-04-29T09:57:29.574Z,7.17
2019-04-29T10:00:05.102Z,7.80
2019-04-29T10:02:48.664Z,7.73
2019-04-29T10:05:30.181Z,7.67
2019-04-29T10:07:59.166Z,8.00
2019-04-29T10:10:28.045Z,6.73
2019-04-29T10:12:57.109Z,8.07
2019-04-29T10:15:42.559Z,8.67
2019-04-29T10:18:19.091Z,8.37
2019-04-29T10:20:51.699Z,7.60
2019-04-29T10:23:20.419Z,7.60
2019-04-29T10:25:49.963Z,7.90
2019-04-29T10:28:18.602Z,8.10
2019-04-29T10:30:48.725Z,7.80
2019-04-29T10:33:19.358Z,7.97
2019-04-29T10:35:48.336Z,7.97
2019-04-29T10:38:16.995Z,7.37
2019-04-29T10:41:00.560Z,7.87
2019-04-29T10:43:49.332Z,7.90
2019-04-29T10:46:45.223Z,7.87
2019-04-29T10:49:20.308Z,6.80
2019-04-29T10:51:49.093Z,7.67
2019-04-29T10:54:17.986Z,7.00
2019-04-29T10:56:47.290Z,6.97
2019-04-29T10:59:16.375Z,7.23
2019-04-29T11:02:25.973Z,7.33
2019-04-29T11:04:58.802Z,7.30
2019-04-29T11:07:37.012Z,6.73
2019-04-29T11:10:24.422Z,11.73
2019-04-29T11:12:44.168Z,6.67
2019-04-29T11:15:15.359Z,6.77
2019-04-29T11:17:46.292Z,6.47
2019-04-29T11:20:15.809Z,6.13
2019-04-29T11:22:51.539Z,6.37
2019-04-29T11:25:40.660Z,5.50
2019-04-29T11:28:12.172Z,7.00
2019-04-29T11:30:40.733Z,5.77
2019-04-29T11:33:24.363Z,6.20
2019-04-29T11:36:12.744Z,6.30
2019-04-29T11:38:41.843Z,6.17
2019-04-29T11:41:12.253Z,5.60
2019-04-29T11:43:41.325Z,6.23
2019-04-29T11:46:14.301Z,5.97
2019-04-29T11:48:41.335Z,6.33
2019-04-29T11:51:18.049Z,5.53
2019-04-29T11:53:46.804Z,5.83
2019-04-29T11:56:16.821Z,6.20
2019-04-29T11:58:52.716Z,6.33
2019-04-29T12:01:46.769Z,6.60
2019-04-29T12:04:17.415Z,6.47
2019-04-29T12:06:46.350Z,7.10
2019-04-29T12:09:15.198Z,6.60
2019-04-29T12:11:43.911Z,5.73
2019-04-29T12:14:22.025Z,6.57
2019-04-29T12:16:58.606Z,5.90
2019-04-29T12:19:30.877Z,6.37
2019-04-29T12:22:00.473Z,5.47
2019-04-29T12:24:29.831Z,5.33
2019-04-29T12:26:58.994Z,5.60
2019-04-29T12:29:27.775Z,5.23
2019-04-29T12:32:09.727Z,6.07
2019-04-29T12:35:09.644Z,5.90
2019-04-29T12:37:52.322Z,5.57
2019-04-29T12:40:49.785Z,6.10
2019-04-29T12:43:36.186Z,6.00
2019-04-29T12:46:10.335Z,5.63
2019-04-29T12:48:39.425Z,5.43
2019-04-29T12:51:08.167Z,4.80
2019-04-29T12:53:36.951Z,5.30
2019-04-29T12:56:07.148Z,5.63
2019-04-29T12:58:36.345Z,5.10
2019-04-29T13:01:16.511Z,5.07
2019-04-29T13:03:53.033Z,5.37
2019-04-29T13:06:38.743Z,5.90
2019-04-29T13:09:01.981Z,5.27
2019-04-29T13:11:45.531Z,5.30
2019-04-29T13:14:01.835Z,5.43
2019-04-29T13:16:38.131Z,6.07
2019-04-29T13:19:14.516Z,5.13
2019-04-29T13:21:41.978Z,5.77
2019-04-29T13:24:22.884Z,5.47
2019-04-29T13:26:42.907Z,5.60
2019-04-29T13:29:25.975Z,5.33
2019-04-29T13:31:42.514Z,5.10
2019-04-29T13:34:23.731Z,5.67
2019-04-29T13:36:44.508Z,5.50
2019-04-29T13:39:13.216Z,4.87
2019-04-29T13:41:56.114Z,5.93
2019-04-29T13:44:12.548Z,6.50
2019-04-29T13:47:03.571Z,5.50
2019-04-29T13:50:17.063Z,5.70
2019-04-29T13:52:31.610Z,4.30
2019-04-29T13:55:16.599Z,5.17
2019-04-29T13:57:31.162Z,5.37
2019-04-29T14:00:31.066Z,5.40
2019-04-29T14:03:11.625Z,4.87
2019-04-29T14:05:41.447Z,4.37
2019-04-29T14:08:09.132Z,5.00
2019-04-29T14:10:37.810Z,5.37
2019-04-29T14:13:13.277Z,5.03
2019-04-29T14:15:40.379Z,4.87
2019-04-29T14:18:11.855Z,4.80
2019-04-29T14:20:38.074Z,4.73
2019-04-29T14:23:06.855Z,4.55
2019-04-29T14:25:35.669Z,4.75
2019-04-29T14:28:04.496Z,4.07
2019-04-29T14:30:39.088Z,5.10
2019-04-29T14:33:03.832Z,4.75
2019-04-29T14:35:38.034Z,4.42
2019-04-29T14:38:07.321Z,5.10
2019-04-29T14:40:38.985Z,4.37
2019-04-29T14:43:31.010Z,4.27
2019-04-29T14:46:27.780Z,4.10
2019-04-29T14:49:04.519Z,4.50
2019-04-29T14:51:36.733Z,4.63
2019-04-29T14:54:05.615Z,4.15
2019-04-29T14:56:35.302Z,3.50
2019-04-29T14:59:10.047Z,3.67
2019-04-29T15:01:58.228Z,3.70
2019-04-29T15:04:36.322Z,3.93
2019-04-29T15:07:05.574Z,4.07
2019-04-29T15:09:45.954Z,3.93
2019-04-29T15:12:23.913Z,4.03
2019-04-29T15:15:18.637Z,3.67
2019-04-29T15:17:57.620Z,2.80
2019-04-29T15:20:45.820Z,3.37
2019-04-29T15:23:27.990Z,3.03
2019-04-29T15:25:44.995Z,3.00
2019-04-29T15:28:13.657Z,3.27
2019-04-29T15:30:42.669Z,3.00
2019-04-29T15:33:11.466Z,3.00
2019-04-29T15:35:40.147Z,3.13
2019-04-29T15:38:08.786Z,3.23
2019-04-29T15:40:42.739Z,3.50
2019-04-29T15:43:08.132Z,3.27
2019-04-29T15:45:36.863Z,2.97
2019-04-29T15:48:05.858Z,2.80
2019-04-29T15:50:37.216Z,2.67
2019-04-29T15:53:05.138Z,3.33
2019-04-29T15:55:34.937Z,2.70
2019-04-29T15:58:04.327Z,2.63
2019-04-29T16:00:37.807Z,3.07
2019-04-29T16:03:03.801Z,3.07
2019-04-29T16:05:56.116Z,3.17
2019-04-29T16:08:32.318Z,2.87
2019-04-29T16:11:17.060Z,3.37
2019-04-29T16:13:49.950Z,2.73
2019-04-29T16:16:17.339Z,3.00
2019-04-29T16:18:46.010Z,3.00
2019-04-29T16:21:14.829Z,2.73
2019-04-29T16:23:43.795Z,3.00
2019-04-29T16:26:12.466Z,2.37
2019-04-29T16:28:41.109Z,3.20
2019-04-29T16:31:12.438Z,2.30
2019-04-29T16:33:40.202Z,2.13
2019-04-29T16:36:08.901Z,2.20
2019-04-29T16:38:37.634Z,2.20
2019-04-29T16:41:20.568Z,2.30
2019-04-29T16:43:49.773Z,2.47
2019-04-29T16:46:23.549Z,2.30
2019-04-29T16:48:52.608Z,2.50
2019-04-29T16:51:21.380Z,1.90
2019-04-29T16:53:50.354Z,1.83
2019-04-29T16:56:19.291Z,1.70
2019-04-29T16:58:48.022Z,2.27
2019-04-29T17:01:16.944Z,1.93
2019-04-29T17:03:45.674Z,2.10
2019-04-29T17:06:14.468Z,2.43
2019-04-29T17:11:32.878Z,2.20
2019-04-29T17:14:03.517Z,1.50
2019-04-29T17:16:31.972Z,1.50
2019-04-29T17:19:00.671Z,3.77
2019-04-29T17:21:29.349Z,2.13
2019-04-29T17:23:58.052Z,1.43
2019-04-29T17:26:33.753Z,1.77
2019-04-29T17:29:38.328Z,1.97
2019-04-29T17:32:16.750Z,1.80
2019-04-29T17:34:59.013Z,1.50
2019-04-29T17:35:17.622Z,1.97
2019-04-29T17:37:16.834Z,1.93
2019-04-29T17:39:45.658Z,1.90
2019-04-29T17:42:14.764Z,1.80
2019-04-29T17:44:45.293Z,2.00
2019-04-29T17:47:32.994Z,1.80
2019-04-29T17:50:29.393Z,1.40
2019-04-29T17:52:50.346Z,1.83
2019-04-29T17:55:37.379Z,1.70
2019-04-29T17:58:19.793Z,1.30
2019-04-29T18:01:03.126Z,1.90
2019-04-29T18:03:46.062Z,1.93
2019-04-29T18:06:33.206Z,1.80
2019-04-29T18:09:21.413Z,2.33
2019-04-29T18:11:53.595Z,1.83
2019-04-29T18:14:21.641Z,2.70
2019-04-29T18:16:50.356Z,2.10
2019-04-29T18:19:38.441Z,1.90
2019-04-29T18:22:25.037Z,3.97
2019-04-29T18:25:02.112Z,1.90
2019-04-29T18:27:34.434Z,1.77
2019-04-29T18:30:06.900Z,1.80
2019-04-29T18:32:36.411Z,2.13
2019-04-29T18:35:05.264Z,1.80
2019-04-29T18:37:36.869Z,2.07
2019-04-29T18:40:05.942Z,1.43
2019-04-29T18:42:38.348Z,2.07
2019-04-29T18:45:05.733Z,1.57
2019-04-29T18:47:36.323Z,1.70
2019-04-29T18:50:05.698Z,1.90
2019-04-29T18:52:35.183Z,1.73
2019-04-29T18:55:05.754Z,1.70
2019-04-29T18:57:35.775Z,1.80
2019-04-29T19:00:11.819Z,2.00
2019-04-29T19:02:45.439Z,1.77
2019-04-29T19:05:14.977Z,1.70
2019-04-29T19:07:54.347Z,2.20
2019-04-29T19:10:18.409Z,1.43
2019-04-29T19:12:57.171Z,2.07
2019-04-29T19:15:17.898Z,3.87
2019-04-29T19:17:58.472Z,1.90
2019-04-29T19:20:18.660Z,1.60
2019-04-29T19:22:47.633Z,2.20
2019-04-29T19:25:16.427Z,1.87
2019-04-29T19:27:45.575Z,1.90
2019-04-29T19:30:20.784Z,1.90
2019-04-29T19:32:46.853Z,2.53
2019-04-29T19:35:16.945Z,2.30
2019-04-29T19:37:56.090Z,2.13
2019-04-29T19:40:25.857Z,1.70
2019-04-29T19:42:55.906Z,1.83
2019-04-29T19:45:24.730Z,2.30
2019-04-29T19:47:53.497Z,1.80
2019-04-29T19:50:22.208Z,1.53
2019-04-29T19:52:51.203Z,1.80
2019-04-29T19:55:19.941Z,1.90
2019-04-29T19:57:52.308Z,1.83
2019-04-29T20:00:28.424Z,1.80
2019-04-29T20:02:51.150Z,1.80
2019-04-29T20:05:31.706Z,2.33
2019-04-29T20:07:59.031Z,2.23
2019-04-29T20:10:29.339Z,1.70
2019-04-29T20:12:58.680Z,2.27
2019-04-29T20:15:32.602Z,1.73
2019-04-29T20:18:39.837Z,1.77
2019-04-29T20:21:20.846Z,1.83
2019-04-29T20:23:43.178Z,2.17
2019-04-29T20:26:15.568Z,2.50
2019-04-29T20:28:42.689Z,2.00
2019-04-29T20:31:19.095Z,2.23
2019-04-29T20:33:46.722Z,1.90
2019-04-29T20:36:13.576Z,1.93
2019-04-29T20:38:43.235Z,2.00
2019-04-29T20:41:20.988Z,1.97
2019-04-29T20:43:45.901Z,2.40
2019-04-29T20:46:15.953Z,2.17
2019-04-29T20:48:45.683Z,1.90
2019-04-29T20:51:16.469Z,2.57
2019-04-29T20:53:49.818Z,2.17
2019-04-29T20:56:26.347Z,2.47
2019-04-29T20:58:49.081Z,2.20
2019-04-29T21:01:25.518Z,2.10
2019-04-29T21:03:56.698Z,2.07
2019-04-29T21:06:25.219Z,1.93
2019-04-29T21:08:55.141Z,1.90
2019-04-29T21:11:31.372Z,2.10
2019-04-29T21:14:15.708Z,2.23
2019-04-29T21:16:46.678Z,2.40
2019-04-29T21:19:15.482Z,2.47
2019-04-29T21:21:45.881Z,1.80
2019-04-29T21:24:18.472Z,2.00
2019-04-29T21:26:46.542Z,1.93
2019-04-29T21:29:19.195Z,2.10
2019-04-29T21:31:46.093Z,5.20
2019-04-29T21:34:17.452Z,2.47
2019-04-29T21:36:57.486Z,2.07
2019-04-29T21:39:36.329Z,2.30
2019-04-29T21:42:28.058Z,2.10
2019-04-29T21:45:03.420Z,1.97
2019-04-29T21:47:41.705Z,2.13
2019-04-29T21:49:59.642Z,2.17
2019-04-29T21:56:06.314Z,1.97
2019-04-29T21:58:32.982Z,2.17
2019-04-29T22:01:04.827Z,2.13
2019-04-29T22:03:33.579Z,2.50
2019-04-29T22:06:02.313Z,2.10
2019-04-29T22:08:31.425Z,2.70
2019-04-29T22:11:04.916Z,2.10
2019-04-29T22:13:35.597Z,2.30
2019-04-29T22:16:01.669Z,2.60
2019-04-29T22:18:30.634Z,2.23
2019-04-29T22:20:59.462Z,2.53
2019-04-29T22:23:28.467Z,2.73
2019-04-29T22:25:57.131Z,2.23
2019-04-29T22:28:26.127Z,2.30
2019-04-29T22:30:56.205Z,2.83
2019-04-29T22:33:25.346Z,2.37
2019-04-29T22:35:55.446Z,2.00
2019-04-29T22:38:25.051Z,2.23
2019-04-29T22:40:55.909Z,2.67
2019-04-29T22:43:40.290Z,2.63
2019-04-29T22:46:10.686Z,2.50
2019-04-29T22:48:40.708Z,3.00
2019-04-29T22:51:13.897Z,2.30
2019-04-29T22:53:44.743Z,2.60
2019-04-29T22:56:13.960Z,2.37
2019-04-29T22:58:43.852Z,2.57
2019-04-29T23:01:12.039Z,2.60
2019-04-29T23:03:45.130Z,2.50
2019-04-29T23:06:15.690Z,2.60
2019-04-29T23:08:45.022Z,3.07
2019-04-29T23:11:13.864Z,3.23
2019-04-29T23:13:42.629Z,2.80
2019-04-29T23:16:11.401Z,2.63
2019-04-29T23:18:42.537Z,2.60
2019-04-29T23:21:28.610Z,2.87
2019-04-29T23:24:13.236Z,3.03
2019-04-29T23:26:42.557Z,2.57
2019-04-29T23:29:11.612Z,3.07
2019-04-29T23:31:40.309Z,2.40
2019-04-29T23:34:09.225Z,2.50
2019-04-29T23:36:38.479Z,2.43
2019-04-29T23:39:07.400Z,2.60
2019-04-29T23:41:36.695Z,2.73
2019-04-29T23:44:08.795Z,2.13
2019-04-29T23:46:35.961Z,2.80
2019-04-29T23:49:06.786Z,2.53
2019-04-29T23:51:37.721Z,2.23
2019-04-29T23:54:07.922Z,2.77
